createdAt,value
2018-07-12T00:01:15.585Z,10.53
2018-07-12T00:03:43.047Z,10.07
2018-07-12T00:06:10.530Z,9.67
2018-07-12T00:08:37.734Z,10.57
2018-07-12T00:11:04.920Z,9.33
2018-07-12T00:13:32.094Z,9.17
2018-07-12T00:15:59.268Z,10.77
2018-07-12T00:18:26.433Z,9.30
2018-07-12T00:20:53.612Z,10.70
2018-07-12T00:23:20.798Z,11.13
2018-07-12T00:25:47.999Z,15.60
2018-07-12T00:28:15.179Z,18.87
2018-07-12T00:30:42.347Z,17.50
2018-07-12T00:33:09.519Z,20.47
2018-07-12T00:35:36.694Z,19.80
2018-07-12T00:38:03.891Z,19.10
2018-07-12T00:40:31.058Z,19.30
2018-07-12T00:42:58.244Z,19.87
2018-07-12T00:45:25.417Z,22.17
2018-07-12T00:47:52.603Z,20.90
2018-07-12T00:50:19.786Z,22.53
2018-07-12T00:52:46.963Z,21.73
2018-07-12T00:55:14.134Z,21.87
2018-07-12T00:57:41.367Z,23.27
2018-07-12T01:00:08.740Z,25.40
2018-07-12T01:02:36.278Z,20.77
2018-07-12T01:05:03.518Z,23.17
2018-07-12T01:07:30.711Z,25.90
2018-07-12T01:09:57.887Z,24.47
2018-07-12T01:12:25.071Z,26.80
2018-07-12T01:14:52.266Z,32.73
2018-07-12T01:17:19.455Z,31.90
2018-07-12T01:19:46.634Z,34.63
2018-07-12T01:22:13.830Z,36.37
2018-07-12T01:24:41.019Z,34.07
2018-07-12T01:27:08.211Z,33.60
2018-07-12T01:29:35.400Z,38.70
2018-07-12T01:32:02.588Z,34.03
2018-07-12T01:34:29.772Z,36.43
2018-07-12T01:36:56.954Z,37.83
2018-07-12T01:39:24.139Z,36.40
2018-07-12T01:41:51.342Z,35.40
2018-07-12T01:44:18.534Z,38.80
2018-07-12T01:46:45.709Z,44.67
2018-07-12T01:49:12.923Z,36.83
2018-07-12T01:51:40.083Z,40.50
2018-07-12T01:54:07.320Z,32.90
2018-07-12T01:56:34.495Z,38.23
2018-07-12T01:59:01.676Z,37.43
2018-07-12T02:01:28.857Z,33.33
2018-07-12T02:03:56.062Z,34.67
2018-07-12T02:09:16.522Z,35.80
2018-07-12T02:11:43.719Z,39.57
2018-07-12T02:14:10.900Z,40.40
2018-07-12T02:16:38.099Z,40.50
2018-07-12T02:19:05.275Z,39.33
2018-07-12T02:21:32.446Z,33.10
2018-07-12T02:23:59.650Z,32.93
2018-07-12T02:26:26.830Z,33.87
2018-07-12T02:28:54.017Z,36.83
2018-07-12T02:31:21.216Z,37.33
2018-07-12T02:33:48.395Z,34.03
2018-07-12T02:36:15.604Z,37.33
2018-07-12T02:38:42.789Z,36.83
2018-07-12T02:41:09.967Z,39.80
2018-07-12T02:43:37.156Z,41.33
2018-07-12T02:46:04.335Z,37.30
2018-07-12T02:48:31.531Z,43.67
2018-07-12T02:50:58.739Z,42.90
2018-07-12T02:53:25.919Z,39.20
2018-07-12T02:55:53.106Z,43.20
2018-07-12T02:58:20.319Z,45.47
2018-07-12T03:00:47.513Z,41.00
2018-07-12T03:03:15.448Z,35.43
2018-07-12T03:05:42.637Z,34.93
2018-07-12T03:08:09.889Z,34.70
2018-07-12T03:10:37.084Z,31.10
2018-07-12T03:13:04.287Z,37.20
2018-07-12T03:15:31.723Z,43.30
2018-07-12T03:17:58.917Z,34.20
2018-07-12T03:20:26.087Z,32.30
2018-07-12T03:22:53.267Z,31.70
2018-07-12T03:25:20.442Z,38.77
2018-07-12T03:27:47.643Z,36.73
2018-07-12T03:30:14.819Z,37.80
2018-07-12T03:32:42.071Z,35.33
2018-07-12T03:35:09.259Z,38.90
2018-07-12T03:37:36.439Z,44.00
2018-07-12T03:40:03.619Z,44.13
2018-07-12T03:42:30.797Z,43.80
2018-07-12T03:44:58.009Z,42.17
2018-07-12T03:47:25.187Z,50.03
2018-07-12T03:49:52.375Z,45.50
2018-07-12T03:52:19.562Z,44.63
2018-07-12T03:54:46.751Z,48.93
2018-07-12T03:57:13.934Z,44.93
2018-07-12T03:59:41.140Z,47.27
2018-07-12T04:02:08.333Z,44.20
2018-07-12T04:04:35.535Z,43.07
2018-07-12T04:07:03.715Z,48.53
2018-07-12T04:09:30.884Z,40.73
2018-07-12T04:11:58.067Z,45.67
2018-07-12T04:14:25.252Z,42.27
2018-07-12T04:16:52.438Z,38.20
2018-07-12T04:19:19.635Z,34.30
2018-07-12T04:21:46.819Z,32.37
2018-07-12T04:24:14.034Z,32.37
2018-07-12T04:26:41.224Z,33.27
2018-07-12T04:29:08.404Z,33.90
2018-07-12T04:31:35.587Z,30.60
2018-07-12T04:34:02.780Z,32.00
2018-07-12T04:36:29.977Z,35.73
2018-07-12T04:38:57.168Z,28.43
2018-07-12T04:41:24.343Z,28.00
2018-07-12T04:43:51.536Z,29.77
2018-07-12T04:46:18.719Z,29.80
2018-07-12T04:48:45.967Z,23.53
2018-07-12T04:51:13.162Z,28.93
2018-07-12T04:53:40.331Z,25.40
2018-07-12T04:56:07.540Z,22.50
2018-07-12T04:58:34.810Z,24.27
2018-07-12T05:01:01.939Z,21.37
2018-07-12T05:03:29.159Z,19.20
2018-07-12T05:05:56.335Z,19.17
2018-07-12T05:08:23.527Z,18.03
2018-07-12T05:10:50.715Z,18.73
2018-07-12T05:13:17.916Z,16.63
2018-07-12T05:15:45.099Z,20.83
2018-07-12T05:18:12.315Z,17.17
2018-07-12T05:20:39.504Z,18.80
2018-07-12T05:23:06.689Z,17.87
2018-07-12T05:25:33.875Z,17.93
2018-07-12T05:28:01.067Z,18.23
2018-07-12T05:30:28.675Z,18.00
2018-07-12T05:32:55.858Z,18.83
2018-07-12T05:35:23.044Z,17.83
2018-07-12T05:37:51.300Z,22.43
2018-07-12T05:40:19.447Z,20.60
2018-07-12T05:42:47.560Z,24.40
2018-07-12T05:45:15.743Z,24.57
2018-07-12T05:47:43.861Z,31.50
2018-07-12T05:50:11.982Z,25.30
2018-07-12T05:52:40.128Z,28.07
2018-07-12T05:55:08.262Z,27.87
2018-07-12T05:57:36.474Z,23.97
2018-07-12T06:00:05.807Z,24.03
2018-07-12T06:02:33.935Z,22.70
2018-07-12T06:05:02.042Z,22.93
2018-07-12T06:07:31.298Z,20.80
2018-07-12T06:09:59.559Z,19.77
2018-07-12T06:12:27.648Z,19.10
2018-07-12T06:14:55.826Z,19.47
2018-07-12T06:17:24.001Z,20.50
2018-07-12T06:19:52.103Z,19.00
2018-07-12T06:22:20.227Z,20.97
2018-07-12T06:24:48.366Z,18.63
2018-07-12T06:27:16.507Z,19.13
2018-07-12T06:29:44.691Z,18.13
2018-07-12T06:32:12.863Z,21.83
2018-07-12T06:34:41.028Z,17.80
2018-07-12T06:37:15.488Z,19.53
2018-07-12T06:39:43.603Z,18.97
2018-07-12T06:42:11.728Z,20.80
2018-07-12T06:44:39.891Z,20.43
2018-07-12T06:47:08.055Z,19.17
2018-07-12T06:49:36.193Z,20.23
2018-07-12T06:52:04.307Z,22.13
2018-07-12T06:54:32.462Z,20.13
2018-07-12T06:57:00.598Z,19.80
2018-07-12T06:59:28.749Z,18.23
2018-07-12T07:01:56.880Z,21.23
2018-07-12T07:04:25.016Z,20.07
2018-07-12T07:06:53.190Z,18.57
2018-07-12T07:09:21.349Z,18.60
2018-07-12T07:11:49.483Z,21.90
2018-07-12T07:14:17.621Z,20.30
2018-07-12T07:16:45.760Z,19.50
2018-07-12T07:19:13.875Z,20.13
2018-07-12T07:21:41.976Z,18.63
2018-07-12T07:24:10.067Z,17.73
2018-07-12T07:26:38.187Z,19.30
2018-07-12T07:29:06.329Z,23.67
2018-07-12T07:31:34.439Z,22.17
2018-07-12T07:34:02.336Z,27.43
2018-07-12T07:36:30.433Z,22.30
2018-07-12T07:38:58.603Z,21.10
2018-07-12T07:41:26.767Z,22.60
2018-07-12T07:43:54.883Z,27.70
2018-07-12T07:46:23.284Z,20.73
2018-07-12T07:48:51.367Z,24.67
2018-07-12T07:51:19.471Z,19.00
2018-07-12T07:53:47.601Z,18.37
2018-07-12T07:56:15.716Z,20.90
2018-07-12T07:58:43.842Z,18.00
2018-07-12T08:01:12.105Z,20.17
2018-07-12T08:03:40.235Z,17.97
2018-07-12T08:06:08.362Z,18.50
2018-07-12T08:08:36.489Z,17.17
2018-07-12T08:11:04.620Z,14.93
2018-07-12T08:13:32.767Z,14.40
2018-07-12T08:16:00.917Z,12.57
2018-07-12T08:18:29.654Z,13.63
2018-07-12T08:20:57.795Z,13.13
2018-07-12T08:23:25.967Z,13.50
2018-07-12T08:25:54.055Z,14.83
2018-07-12T08:28:26.253Z,13.77
2018-07-12T08:30:54.852Z,12.83
2018-07-12T08:33:23.287Z,13.07
2018-07-12T08:35:51.457Z,13.87
2018-07-12T08:38:19.615Z,15.00
2018-07-12T08:40:48.054Z,19.23
2018-07-12T08:43:16.194Z,14.43
2018-07-12T08:45:44.922Z,14.87
2018-07-12T08:48:13.048Z,14.77
2018-07-12T08:50:41.199Z,17.00
2018-07-12T08:53:09.414Z,15.80
2018-07-12T08:55:37.571Z,15.03
2018-07-12T08:58:05.695Z,16.27
2018-07-12T09:00:33.617Z,14.03
2018-07-12T09:03:01.821Z,16.10
2018-07-12T09:05:29.893Z,13.83
2018-07-12T09:07:58.016Z,14.03
2018-07-12T09:10:26.164Z,13.93
2018-07-12T09:12:54.300Z,14.03
2018-07-12T09:15:22.440Z,12.70
2018-07-12T09:17:50.608Z,14.33
2018-07-12T09:20:18.736Z,15.53
2018-07-12T09:22:46.868Z,13.73
2018-07-12T09:25:15.015Z,14.10
2018-07-12T09:27:43.143Z,17.63
2018-07-12T09:30:11.271Z,14.33
2018-07-12T09:32:39.478Z,13.80
2018-07-12T09:35:07.670Z,14.57
2018-07-12T09:37:35.814Z,13.07
2018-07-12T09:40:04.066Z,15.47
2018-07-12T09:42:32.206Z,13.37
2018-07-12T09:45:00.361Z,13.87
2018-07-12T09:47:28.540Z,16.63
2018-07-12T09:49:56.644Z,16.07
2018-07-12T09:52:30.131Z,14.80
2018-07-12T09:54:58.366Z,16.77
2018-07-12T09:57:37.971Z,15.60
2018-07-12T10:00:06.160Z,14.30
2018-07-12T10:02:39.712Z,12.63
2018-07-12T10:05:15.976Z,12.70
2018-07-12T10:07:50.283Z,11.17
2018-07-12T10:10:19.574Z,16.50
2018-07-12T10:12:53.403Z,11.10
2018-07-12T10:15:26.859Z,12.17
2018-07-12T10:18:00.240Z,15.17
2018-07-12T10:20:28.347Z,12.33
2018-07-12T10:22:56.435Z,13.30
2018-07-12T10:25:24.542Z,16.77
2018-07-12T10:27:52.655Z,10.60
2018-07-12T10:30:20.752Z,8.83
2018-07-12T10:32:48.847Z,12.40
2018-07-12T10:35:16.949Z,9.93
2018-07-12T10:37:45.043Z,9.67
2018-07-12T10:40:13.135Z,8.93
2018-07-12T10:42:41.287Z,9.90
2018-07-12T10:45:09.383Z,12.40
2018-07-12T10:47:37.475Z,8.50
2018-07-12T10:50:05.635Z,11.73
2018-07-12T10:52:33.746Z,7.80
2018-07-12T10:55:01.847Z,11.03
2018-07-12T10:57:29.951Z,8.90
2018-07-12T10:59:58.038Z,6.90
2018-07-12T11:02:26.119Z,13.97
2018-07-12T11:04:54.228Z,7.83
2018-07-12T11:07:22.333Z,6.73
2018-07-12T11:09:50.473Z,8.33
2018-07-12T11:12:18.595Z,8.20
2018-07-12T11:14:46.732Z,7.47
2018-07-12T11:17:14.874Z,8.07
2018-07-12T11:19:42.995Z,8.43
2018-07-12T11:22:11.149Z,5.70
2018-07-12T11:24:39.247Z,6.37
2018-07-12T11:27:07.374Z,6.83
2018-07-12T11:29:47.177Z,9.67
2018-07-12T11:32:15.367Z,6.93
2018-07-12T11:34:43.515Z,7.00
2018-07-12T11:37:17.823Z,6.07
2018-07-12T11:39:45.718Z,6.50
2018-07-12T11:42:13.861Z,7.30
2018-07-12T11:44:42.031Z,5.87
2018-07-12T11:47:10.126Z,5.90
2018-07-12T11:49:38.296Z,6.63
2018-07-12T11:52:06.806Z,6.60
2018-07-12T11:54:34.943Z,5.17
2018-07-12T11:57:03.068Z,6.17
2018-07-12T11:59:31.203Z,8.50
2018-07-12T12:01:59.386Z,6.17
2018-07-12T12:04:27.509Z,5.67
2018-07-12T12:06:55.765Z,6.17
2018-07-12T12:09:23.890Z,5.00
2018-07-12T12:11:52.007Z,8.80
2018-07-12T12:14:20.151Z,6.20
2018-07-12T12:16:48.276Z,10.93
2018-07-12T12:19:16.436Z,6.60
2018-07-12T12:21:44.572Z,9.40
2018-07-12T12:24:12.727Z,8.57
2018-07-12T12:26:40.858Z,11.20
2018-07-12T12:29:08.990Z,7.50
2018-07-12T12:31:37.132Z,3.97
2018-07-12T12:34:05.271Z,7.43
2018-07-12T12:36:33.394Z,5.30
2018-07-12T12:39:01.535Z,3.83
2018-07-12T12:41:29.642Z,4.57
2018-07-12T12:43:57.799Z,4.00
2018-07-12T12:46:25.932Z,5.10
2018-07-12T12:48:54.076Z,7.40
2018-07-12T12:51:22.203Z,7.43
2018-07-12T12:53:50.834Z,6.87
2018-07-12T12:56:18.958Z,5.73
2018-07-12T12:58:47.087Z,5.70
2018-07-12T13:01:15.263Z,6.97
2018-07-12T13:03:43.510Z,4.83
2018-07-12T13:06:11.631Z,7.37
2018-07-12T13:08:39.776Z,9.40
2018-07-12T13:11:07.949Z,4.17
2018-07-12T13:13:36.084Z,4.30
2018-07-12T13:16:04.211Z,10.70
2018-07-12T13:18:32.323Z,5.33
2018-07-12T13:21:00.469Z,5.70
2018-07-12T13:23:28.629Z,6.20
2018-07-12T13:25:56.797Z,6.20
2018-07-12T13:28:24.871Z,6.90
2018-07-12T13:30:53.040Z,4.33
2018-07-12T13:33:21.197Z,8.67
2018-07-12T13:35:49.596Z,7.67
2018-07-12T13:38:17.707Z,6.63
2018-07-12T13:40:45.850Z,4.60
2018-07-12T13:43:14.020Z,4.80
2018-07-12T13:45:42.183Z,3.70
2018-07-12T13:48:10.343Z,4.77
2018-07-12T13:50:38.475Z,5.10
2018-07-12T13:53:07.292Z,5.00
2018-07-12T13:55:35.646Z,5.53
2018-07-12T13:58:03.588Z,3.17
2018-07-12T14:00:31.663Z,2.93
2018-07-12T14:02:59.870Z,3.10
2018-07-12T14:05:28.008Z,2.90
2018-07-12T14:07:56.132Z,4.33
2018-07-12T14:10:24.319Z,4.37
2018-07-12T14:12:52.720Z,3.27
2018-07-12T14:15:20.818Z,2.97
2018-07-12T14:17:48.919Z,2.80
2018-07-12T14:20:17.014Z,3.83
2018-07-12T14:22:45.215Z,2.90
2018-07-12T14:25:13.352Z,3.40
2018-07-12T14:27:41.463Z,4.73
2018-07-12T14:30:09.552Z,3.07
2018-07-12T14:32:37.648Z,3.00
2018-07-12T14:35:05.767Z,3.70
2018-07-12T14:37:33.871Z,3.60
2018-07-12T14:40:02.006Z,5.37
2018-07-12T14:42:30.103Z,3.53
2018-07-12T14:44:58.201Z,4.10
2018-07-12T14:47:26.296Z,4.30
2018-07-12T14:49:54.427Z,2.90
2018-07-12T14:52:22.538Z,3.70
2018-07-12T14:54:50.634Z,2.63
2018-07-12T14:57:18.721Z,2.87
2018-07-12T14:59:46.818Z,4.20
2018-07-12T15:02:14.964Z,3.53
2018-07-12T15:04:43.073Z,4.00
2018-07-12T15:07:11.157Z,4.30
2018-07-12T15:09:39.247Z,3.93
2018-07-12T15:12:07.348Z,2.67
2018-07-12T15:14:35.631Z,2.90
2018-07-12T15:17:03.791Z,4.37
2018-07-12T15:19:31.912Z,3.00
2018-07-12T15:22:00.183Z,3.80
2018-07-12T15:24:28.380Z,3.50
2018-07-12T15:26:56.502Z,3.20
2018-07-12T15:29:24.760Z,3.00
2018-07-12T15:31:52.803Z,3.30
2018-07-12T15:34:20.918Z,5.60
2018-07-12T15:36:49.054Z,2.60
2018-07-12T15:39:17.167Z,3.30
2018-07-12T15:41:45.311Z,3.10
2018-07-12T15:44:13.438Z,5.17
2018-07-12T15:46:41.580Z,2.87
2018-07-12T15:49:09.697Z,2.60
2018-07-12T15:51:37.842Z,3.37
2018-07-12T15:54:05.975Z,2.90
2018-07-12T15:56:34.095Z,5.60
2018-07-12T15:59:02.242Z,3.73
2018-07-12T16:01:30.399Z,3.23
2018-07-12T16:03:58.557Z,3.33
2018-07-12T16:06:26.678Z,4.87
2018-07-12T16:08:54.814Z,5.73
2018-07-12T16:11:23.755Z,3.20
2018-07-12T16:13:51.883Z,3.87
2018-07-12T16:16:19.978Z,3.83
2018-07-12T16:18:48.063Z,4.03
2018-07-12T16:21:16.156Z,3.10
2018-07-12T16:23:44.258Z,3.70
2018-07-12T16:26:12.402Z,4.43
2018-07-12T16:28:40.506Z,4.13
2018-07-12T16:31:08.647Z,4.17
2018-07-12T16:33:36.767Z,3.97
2018-07-12T16:36:05.208Z,4.17
2018-07-12T16:38:33.307Z,4.97
2018-07-12T16:41:01.424Z,4.03
2018-07-12T16:43:29.507Z,3.97
2018-07-12T16:45:57.600Z,3.70
2018-07-12T16:48:25.725Z,5.20
2018-07-12T16:50:53.894Z,4.10
2018-07-12T16:53:22.344Z,3.73
2018-07-12T16:55:50.404Z,3.67
2018-07-12T16:58:18.280Z,4.57
2018-07-12T17:00:46.375Z,4.00
2018-07-12T17:03:14.463Z,4.30
2018-07-12T17:05:42.558Z,4.17
2018-07-12T17:08:10.640Z,5.30
2018-07-12T17:10:38.720Z,3.87
2018-07-12T17:13:06.826Z,4.20
2018-07-12T17:15:34.924Z,8.77
2018-07-12T17:18:02.998Z,3.77
2018-07-12T17:20:31.096Z,4.13
2018-07-12T17:22:59.285Z,3.87
2018-07-12T17:25:27.371Z,6.00
2018-07-12T17:27:55.481Z,4.63
2018-07-12T17:30:23.607Z,4.90
2018-07-12T17:32:51.699Z,3.97
2018-07-12T17:35:19.798Z,7.00
2018-07-12T17:37:47.908Z,7.90
2018-07-12T17:40:16.011Z,5.07
2018-07-12T17:42:44.138Z,6.10
2018-07-12T17:45:12.246Z,4.20
2018-07-12T17:47:40.392Z,3.97
2018-07-12T17:50:08.463Z,5.53
2018-07-12T17:52:36.564Z,5.60
2018-07-12T17:55:04.688Z,4.90
2018-07-12T17:57:32.796Z,4.40
2018-07-12T18:00:00.944Z,6.27
2018-07-12T18:02:29.066Z,3.63
2018-07-12T18:04:57.223Z,4.00
2018-07-12T18:07:25.314Z,3.70
2018-07-12T18:09:53.422Z,4.53
2018-07-12T18:12:21.527Z,5.90
2018-07-12T18:14:49.638Z,3.97
2018-07-12T18:17:17.786Z,3.43
2018-07-12T18:19:45.925Z,3.90
2018-07-12T18:22:14.093Z,3.70
2018-07-12T18:24:42.207Z,3.13
2018-07-12T18:27:10.377Z,9.00
2018-07-12T18:29:38.504Z,3.93
2018-07-12T18:32:06.735Z,6.57
2018-07-12T18:34:34.923Z,6.43
2018-07-12T18:37:03.090Z,8.07
2018-07-12T18:39:31.247Z,6.87
2018-07-12T18:41:59.403Z,6.50
2018-07-12T18:44:27.533Z,4.17
2018-07-12T18:46:55.690Z,7.37
2018-07-12T18:49:23.906Z,4.20
2018-07-12T18:51:52.044Z,5.83
2018-07-12T18:54:20.192Z,4.60
2018-07-12T18:56:48.298Z,3.60
2018-07-12T18:59:16.438Z,5.07
2018-07-12T19:01:44.559Z,9.73
2018-07-12T19:04:12.695Z,3.70
2018-07-12T19:06:40.815Z,5.43
2018-07-12T19:09:09.524Z,4.70
2018-07-12T19:11:37.651Z,6.50
2018-07-12T19:14:05.775Z,6.93
2018-07-12T19:16:33.901Z,4.67
2018-07-12T19:19:02.035Z,4.90
2018-07-12T19:21:30.170Z,8.37
2018-07-12T19:23:58.371Z,7.53
2018-07-12T19:26:26.584Z,4.23
2018-07-12T19:28:54.720Z,4.17
2018-07-12T19:31:23.656Z,3.87
2018-07-12T19:33:51.787Z,8.03
2018-07-12T19:36:19.913Z,4.27
2018-07-12T19:38:48.075Z,4.27
2018-07-12T19:41:16.253Z,5.00
2018-07-12T19:43:44.387Z,4.60
2018-07-12T19:46:12.534Z,3.17
2018-07-12T19:48:40.668Z,6.23
2018-07-12T19:51:08.777Z,4.20
2018-07-12T19:53:36.923Z,3.87
2018-07-12T19:56:05.059Z,5.10
2018-07-12T19:58:33.179Z,3.60
2018-07-12T20:01:01.308Z,3.43
2018-07-12T20:03:29.459Z,3.80
2018-07-12T20:05:57.649Z,4.60
2018-07-12T20:08:25.777Z,4.80
2018-07-12T20:10:53.915Z,4.90
2018-07-12T20:13:22.096Z,4.73
2018-07-12T20:15:50.262Z,6.70
2018-07-12T20:18:18.442Z,4.60
2018-07-12T20:20:46.535Z,5.57
2018-07-12T20:23:14.698Z,4.60
2018-07-12T20:25:42.804Z,8.63
2018-07-12T20:28:10.892Z,5.50
2018-07-12T20:33:31.921Z,7.50
2018-07-12T20:35:59.997Z,5.77
2018-07-12T20:38:28.127Z,7.20
2018-07-12T20:40:56.340Z,7.90
2018-07-12T20:43:24.427Z,5.67
2018-07-12T20:45:52.523Z,5.50
2018-07-12T20:48:20.631Z,9.30
2018-07-12T20:50:48.732Z,7.50
2018-07-12T20:53:16.834Z,10.43
2018-07-12T20:55:44.938Z,6.30
2018-07-12T20:58:13.024Z,6.50
2018-07-12T21:00:41.145Z,7.20
2018-07-12T21:03:09.249Z,7.67
2018-07-12T21:05:37.351Z,7.20
2018-07-12T21:08:05.469Z,7.30
2018-07-12T21:10:33.561Z,7.47
2018-07-12T21:13:01.672Z,8.53
2018-07-12T21:15:29.860Z,6.60
2018-07-12T21:17:57.953Z,7.07
2018-07-12T21:20:26.111Z,8.13
2018-07-12T21:22:54.251Z,7.47
2018-07-12T21:25:22.383Z,8.50
2018-07-12T21:27:50.511Z,11.13
2018-07-12T21:30:18.666Z,9.67
2018-07-12T21:32:46.852Z,7.03
2018-07-12T21:35:14.976Z,7.63
2018-07-12T21:37:43.083Z,7.50
2018-07-12T21:40:11.213Z,7.97
2018-07-12T21:42:39.335Z,12.17
2018-07-12T21:45:07.481Z,10.67
2018-07-12T21:47:35.616Z,7.53
2018-07-12T21:50:03.743Z,8.63
2018-07-12T21:52:31.631Z,7.63
2018-07-12T21:54:59.735Z,9.03
2018-07-12T21:57:27.830Z,9.43
2018-07-12T21:59:55.971Z,11.40
2018-07-12T22:02:24.063Z,9.83
2018-07-12T22:04:52.181Z,9.20
2018-07-12T22:08:28.025Z,8.83
2018-07-12T22:10:57.423Z,8.37
2018-07-12T22:13:26.202Z,9.33
2018-07-12T22:15:54.332Z,7.93
2018-07-12T22:18:22.461Z,9.00
2018-07-12T22:20:50.603Z,8.47
2018-07-12T22:23:18.762Z,8.03
2018-07-12T22:25:46.948Z,8.17
2018-07-12T22:28:15.154Z,7.73
2018-07-12T22:30:43.353Z,8.73
2018-07-12T22:33:11.484Z,11.40
2018-07-12T22:35:39.620Z,8.27
2018-07-12T22:38:07.739Z,11.63
2018-07-12T22:40:35.871Z,8.23
2018-07-12T22:43:04.008Z,15.10
2018-07-12T22:45:32.118Z,10.00
2018-07-12T22:48:00.315Z,7.80
2018-07-12T22:50:28.412Z,12.87
2018-07-12T22:52:56.548Z,10.97
2018-07-12T22:55:24.693Z,8.40
2018-07-12T22:57:52.806Z,7.27
2018-07-12T23:00:20.958Z,8.50
2018-07-12T23:02:49.097Z,10.00
2018-07-12T23:05:17.243Z,9.10
2018-07-12T23:07:45.364Z,9.60
2018-07-12T23:10:13.520Z,9.50
2018-07-12T23:12:41.661Z,8.10
2018-07-12T23:15:09.814Z,10.27
2018-07-12T23:17:37.943Z,8.10
2018-07-12T23:20:06.071Z,8.40
2018-07-12T23:22:34.288Z,8.20
2018-07-12T23:25:02.415Z,7.40
2018-07-12T23:27:31.382Z,7.07
2018-07-12T23:29:59.507Z,8.67
2018-07-12T23:32:27.628Z,8.90
2018-07-12T23:34:55.763Z,7.33
2018-07-12T23:37:23.879Z,7.10
2018-07-12T23:39:51.987Z,11.30
2018-07-12T23:42:20.131Z,7.87
2018-07-12T23:44:48.251Z,6.27
2018-07-12T23:47:16.383Z,6.37
2018-07-12T23:49:44.510Z,6.33
2018-07-12T23:52:12.630Z,8.40
2018-07-12T23:54:40.751Z,6.93
2018-07-12T23:57:08.866Z,6.30
2018-07-12T23:59:37.031Z,5.93
